Chapuy, Argentina
Current Conditions -  °F | °C
As of 9:00 PM on Thursday 18 Dec 2014 (Local Time) from SAAR Reporting Station
Clear Clear  
Wind Chill: 77°   Ceiling: Unl
Heat Index: 79°   Visibility: 6mi
Dew Point: 63°   Wind: 7mph
Humidity: 61%   Direction: 340°NNW
Pressure: 29.77"   Gusts: NA
Location:  33.8°S, 61.75°W
Report Text: SAAR 190000Z 34006KT CAVOK 25/17 Q1008
Loading
Personal Weather Stations






























Interactive Weather Map New forecast layout! Learn more

10-Day Weather Forecast

Advertisements
Track Severe Weather on mobile